sensor_id;sensor_type;location;lat;lon;timestamp;temperature;humidity
612;DHT22;293;53.888;11.464;2023-11-19T00:00:14;5.60;99.90
612;DHT22;293;53.888;11.464;2023-11-19T00:02:43;5.60;99.90
612;DHT22;293;53.888;11.464;2023-11-19T00:05:10;5.60;99.90
612;DHT22;293;53.888;11.464;2023-11-19T00:07:38;5.60;99.90
612;DHT22;293;53.888;11.464;2023-11-19T00:10:07;5.70;99.90
612;DHT22;293;53.888;11.464;2023-11-19T00:12:37;5.70;99.90
612;DHT22;293;53.888;11.464;2023-11-19T00:15:06;5.70;99.90
612;DHT22;293;53.888;11.464;2023-11-19T00:17:36;5.70;99.90
612;DHT22;293;53.888;11.464;2023-11-19T00:20:07;5.70;99.90
612;DHT22;293;53.888;11.464;2023-11-19T00:22:34;5.70;99.90
612;DHT22;293;53.888;11.464;2023-11-19T00:25:01;5.70;99.90
612;DHT22;293;53.888;11.464;2023-11-19T00:27:29;5.70;99.90
612;DHT22;293;53.888;11.464;2023-11-19T00:29:56;5.70;99.90
612;DHT22;293;53.888;11.464;2023-11-19T00:32:24;5.70;99.90
612;DHT22;293;53.888;11.464;2023-11-19T00:34:50;5.70;99.90
612;DHT22;293;53.888;11.464;2023-11-19T00:37:19;5.70;99.90
612;DHT22;293;53.888;11.464;2023-11-19T00:39:46;5.70;99.90
612;DHT22;293;53.888;11.464;2023-11-19T00:42:12;5.80;99.90
612;DHT22;293;53.888;11.464;2023-11-19T00:44:40;5.80;99.90
612;DHT22;293;53.888;11.464;2023-11-19T00:47:07;5.80;99.90
612;DHT22;293;53.888;11.464;2023-11-19T00:49:34;5.80;99.90
612;DHT22;293;53.888;11.464;2023-11-19T00:52:01;5.80;99.90
612;DHT22;293;53.888;11.464;2023-11-19T00:54:30;5.90;99.90
612;DHT22;293;53.888;11.464;2023-11-19T00:56:56;5.80;99.90
612;DHT22;293;53.888;11.464;2023-11-19T00:59:23;5.80;99.90
612;DHT22;293;53.888;11.464;2023-11-19T01:01:50;5.70;99.90
612;DHT22;293;53.888;11.464;2023-11-19T01:04:17;5.80;99.90
612;DHT22;293;53.888;11.464;2023-11-19T01:06:44;5.80;99.90
612;DHT22;293;53.888;11.464;2023-11-19T01:09:11;5.80;99.90
612;DHT22;293;53.888;11.464;2023-11-19T01:11:39;5.80;99.90
612;DHT22;293;53.888;11.464;2023-11-19T01:14:06;5.70;99.90
612;DHT22;293;53.888;11.464;2023-11-19T01:16:33;5.70;99.90
612;DHT22;293;53.888;11.464;2023-11-19T01:19:00;5.70;99.90
612;DHT22;293;53.888;11.464;2023-11-19T01:21:30;5.80;99.90
612;DHT22;293;53.888;11.464;2023-11-19T01:23:57;5.80;99.90
612;DHT22;293;53.888;11.464;2023-11-19T01:26:25;5.70;99.90
612;DHT22;293;53.888;11.464;2023-11-19T01:28:53;5.70;99.90
612;DHT22;293;53.888;11.464;2023-11-19T01:31:20;5.80;99.90
612;DHT22;293;53.888;11.464;2023-11-19T01:33:47;5.80;99.90
612;DHT22;293;53.888;11.464;2023-11-19T01:36:14;5.80;99.90
612;DHT22;293;53.888;11.464;2023-11-19T01:38:41;5.80;99.90
612;DHT22;293;53.888;11.464;2023-11-19T01:41:08;5.80;99.90
612;DHT22;293;53.888;11.464;2023-11-19T01:43:36;5.90;99.90
612;DHT22;293;53.888;11.464;2023-11-19T01:46:05;5.90;99.90
612;DHT22;293;53.888;11.464;2023-11-19T01:48:37;5.90;99.90
612;DHT22;293;53.888;11.464;2023-11-19T01:51:05;5.90;99.90
612;DHT22;293;53.888;11.464;2023-11-19T01:53:34;5.80;99.90
612;DHT22;293;53.888;11.464;2023-11-19T01:56:04;5.80;99.90
612;DHT22;293;53.888;11.464;2023-11-19T01:58:32;5.80;99.90
612;DHT22;293;53.888;11.464;2023-11-19T02:01:00;5.80;99.90
612;DHT22;293;53.888;11.464;2023-11-19T02:03:31;5.80;99.90
612;DHT22;293;53.888;11.464;2023-11-19T02:05:59;5.70;99.90
612;DHT22;293;53.888;11.464;2023-11-19T02:08:26;5.80;99.90
612;DHT22;293;53.888;11.464;2023-11-19T02:10:53;5.80;99.90
612;DHT22;293;53.888;11.464;2023-11-19T02:13:22;5.80;99.90
612;DHT22;293;53.888;11.464;2023-11-19T02:15:50;5.80;99.90
612;DHT22;293;53.888;11.464;2023-11-19T02:18:18;5.80;99.90
612;DHT22;293;53.888;11.464;2023-11-19T02:20:46;5.80;99.90
612;DHT22;293;53.888;11.464;2023-11-19T02:23:13;5.90;99.90
612;DHT22;293;53.888;11.464;2023-11-19T02:25:41;5.90;99.90
612;DHT22;293;53.888;11.464;2023-11-19T02:28:10;5.80;99.90
612;DHT22;293;53.888;11.464;2023-11-19T02:30:38;5.80;99.90
612;DHT22;293;53.888;11.464;2023-11-19T02:33:05;5.90;99.90
612;DHT22;293;53.888;11.464;2023-11-19T02:35:32;5.90;99.90
612;DHT22;293;53.888;11.464;2023-11-19T02:38:00;5.90;99.90
612;DHT22;293;53.888;11.464;2023-11-19T02:40:29;5.90;99.90
612;DHT22;293;53.888;11.464;2023-11-19T02:42:56;5.90;99.90
612;DHT22;293;53.888;11.464;2023-11-19T02:45:25;5.90;99.90
612;DHT22;293;53.888;11.464;2023-11-19T02:47:52;5.90;99.90
612;DHT22;293;53.888;11.464;2023-11-19T02:50:20;5.90;99.90
612;DHT22;293;53.888;11.464;2023-11-19T02:52:52;5.90;99.90
612;DHT22;293;53.888;11.464;2023-11-19T02:55:19;6.00;99.90
612;DHT22;293;53.888;11.464;2023-11-19T02:57:46;5.90;99.90
612;DHT22;293;53.888;11.464;2023-11-19T03:00:15;6.00;99.90
612;DHT22;293;53.888;11.464;2023-11-19T03:02:44;6.00;99.90
612;DHT22;293;53.888;11.464;2023-11-19T03:05:12;6.00;99.90
612;DHT22;293;53.888;11.464;2023-11-19T03:07:40;6.00;99.90
612;DHT22;293;53.888;11.464;2023-11-19T03:10:09;6.00;99.90
612;DHT22;293;53.888;11.464;2023-11-19T03:12:39;6.00;99.90
612;DHT22;293;53.888;11.464;2023-11-19T03:15:07;6.00;99.90
612;DHT22;293;53.888;11.464;2023-11-19T03:17:35;6.00;99.90
612;DHT22;293;53.888;11.464;2023-11-19T03:20:05;6.00;99.90
612;DHT22;293;53.888;11.464;2023-11-19T03:22:35;6.00;99.90
612;DHT22;293;53.888;11.464;2023-11-19T03:25:03;6.00;99.90
612;DHT22;293;53.888;11.464;2023-11-19T03:27:33;6.00;99.90
612;DHT22;293;53.888;11.464;2023-11-19T03:30:01;6.00;99.90
612;DHT22;293;53.888;11.464;2023-11-19T03:32:30;6.10;99.90
612;DHT22;293;53.888;11.464;2023-11-19T03:34:57;6.10;99.90
612;DHT22;293;53.888;11.464;2023-11-19T03:37:26;6.10;99.90
612;DHT22;293;53.888;11.464;2023-11-19T03:39:53;6.10;99.90
612;DHT22;293;53.888;11.464;2023-11-19T03:42:20;6.00;99.90
612;DHT22;293;53.888;11.464;2023-11-19T03:44:47;6.00;99.90
612;DHT22;293;53.888;11.464;2023-11-19T03:47:16;6.00;99.90
612;DHT22;293;53.888;11.464;2023-11-19T03:49:42;6.00;99.90
612;DHT22;293;53.888;11.464;2023-11-19T03:52:14;6.00;99.90
612;DHT22;293;53.888;11.464;2023-11-19T03:54:42;6.00;99.90
612;DHT22;293;53.888;11.464;2023-11-19T03:57:09;6.00;99.90
612;DHT22;293;53.888;11.464;2023-11-19T03:59:37;6.00;99.90
612;DHT22;293;53.888;11.464;2023-11-19T04:02:04;6.00;99.90
612;DHT22;293;53.888;11.464;2023-11-19T04:04:32;6.10;99.90
612;DHT22;293;53.888;11.464;2023-11-19T04:07:00;6.10;99.90
612;DHT22;293;53.888;11.464;2023-11-19T04:09:28;6.00;99.90
612;DHT22;293;53.888;11.464;2023-11-19T04:11:56;6.00;99.90
612;DHT22;293;53.888;11.464;2023-11-19T04:14:23;6.00;99.90
612;DHT22;293;53.888;11.464;2023-11-19T04:16:50;6.10;99.90
612;DHT22;293;53.888;11.464;2023-11-19T04:19:17;6.10;99.90
612;DHT22;293;53.888;11.464;2023-11-19T04:21:44;6.10;99.90
612;DHT22;293;53.888;11.464;2023-11-19T04:24:11;6.10;99.90
612;DHT22;293;53.888;11.464;2023-11-19T04:26:40;6.10;99.90
612;DHT22;293;53.888;11.464;2023-11-19T04:29:10;6.10;99.90
612;DHT22;293;53.888;11.464;2023-11-19T04:31:38;6.10;99.90
612;DHT22;293;53.888;11.464;2023-11-19T04:34:05;6.10;99.90
612;DHT22;293;53.888;11.464;2023-11-19T04:36:31;6.10;99.90
612;DHT22;293;53.888;11.464;2023-11-19T04:38:58;6.10;99.90
612;DHT22;293;53.888;11.464;2023-11-19T04:41:26;6.10;99.90
612;DHT22;293;53.888;11.464;2023-11-19T04:43:54;6.10;99.90
612;DHT22;293;53.888;11.464;2023-11-19T04:46:23;6.10;99.90
612;DHT22;293;53.888;11.464;2023-11-19T04:48:50;6.10;99.90
612;DHT22;293;53.888;11.464;2023-11-19T04:51:17;6.10;99.90
612;DHT22;293;53.888;11.464;2023-11-19T04:53:43;6.10;99.90
612;DHT22;293;53.888;11.464;2023-11-19T04:56:11;6.10;99.90
612;DHT22;293;53.888;11.464;2023-11-19T04:58:39;6.10;99.90
612;DHT22;293;53.888;11.464;2023-11-19T05:01:06;6.10;99.90
612;DHT22;293;53.888;11.464;2023-11-19T05:03:34;6.10;99.90
612;DHT22;293;53.888;11.464;2023-11-19T05:06:01;6.10;99.90
612;DHT22;293;53.888;11.464;2023-11-19T05:08:28;6.20;99.90
612;DHT22;293;53.888;11.464;2023-11-19T05:10:55;6.10;99.90
612;DHT22;293;53.888;11.464;2023-11-19T05:13:23;6.20;99.90
612;DHT22;293;53.888;11.464;2023-11-19T05:15:50;6.20;99.90
612;DHT22;293;53.888;11.464;2023-11-19T05:18:17;6.20;99.90
612;DHT22;293;53.888;11.464;2023-11-19T05:20:45;6.20;99.90
612;DHT22;293;53.888;11.464;2023-11-19T05:23:12;6.20;99.90
612;DHT22;293;53.888;11.464;2023-11-19T05:25:39;6.20;99.90
612;DHT22;293;53.888;11.464;2023-11-19T05:28:06;6.20;99.90
612;DHT22;293;53.888;11.464;2023-11-19T05:30:33;6.20;99.90
612;DHT22;293;53.888;11.464;2023-11-19T05:33:00;6.20;99.90
612;DHT22;293;53.888;11.464;2023-11-19T05:35:27;6.20;99.90
612;DHT22;293;53.888;11.464;2023-11-19T05:37:55;6.20;99.90
612;DHT22;293;53.888;11.464;2023-11-19T05:40:22;6.20;99.90
612;DHT22;293;53.888;11.464;2023-11-19T05:42:49;6.30;99.90
612;DHT22;293;53.888;11.464;2023-11-19T05:45:16;6.30;99.90
612;DHT22;293;53.888;11.464;2023-11-19T05:47:43;6.30;99.90
612;DHT22;293;53.888;11.464;2023-11-19T05:50:10;6.30;99.90
612;DHT22;293;53.888;11.464;2023-11-19T05:52:37;6.30;99.90
612;DHT22;293;53.888;11.464;2023-11-19T05:55:06;6.30;99.90
612;DHT22;293;53.888;11.464;2023-11-19T05:57:35;6.40;99.90
612;DHT22;293;53.888;11.464;2023-11-19T06:00:02;6.40;99.90
612;DHT22;293;53.888;11.464;2023-11-19T06:02:32;6.40;99.90
612;DHT22;293;53.888;11.464;2023-11-19T06:04:59;6.40;99.90
612;DHT22;293;53.888;11.464;2023-11-19T06:07:26;6.40;99.90
612;DHT22;293;53.888;11.464;2023-11-19T06:09:53;6.40;99.90
612;DHT22;293;53.888;11.464;2023-11-19T06:12:21;6.40;99.90
612;DHT22;293;53.888;11.464;2023-11-19T06:14:48;6.50;99.90
612;DHT22;293;53.888;11.464;2023-11-19T06:17:15;6.50;99.90
612;DHT22;293;53.888;11.464;2023-11-19T06:19:42;6.50;99.90
612;DHT22;293;53.888;11.464;2023-11-19T06:22:10;6.50;99.90
612;DHT22;293;53.888;11.464;2023-11-19T06:24:37;6.50;99.90
612;DHT22;293;53.888;11.464;2023-11-19T06:27:04;6.50;99.90
612;DHT22;293;53.888;11.464;2023-11-19T06:29:32;6.60;99.90
612;DHT22;293;53.888;11.464;2023-11-19T06:31:59;6.60;99.90
612;DHT22;293;53.888;11.464;2023-11-19T06:34:26;6.60;99.90
612;DHT22;293;53.888;11.464;2023-11-19T06:36:53;6.70;99.90
612;DHT22;293;53.888;11.464;2023-11-19T06:39:19;6.70;99.90
612;DHT22;293;53.888;11.464;2023-11-19T06:41:47;6.70;99.90
612;DHT22;293;53.888;11.464;2023-11-19T06:44:14;6.80;99.90
612;DHT22;293;53.888;11.464;2023-11-19T06:46:42;6.80;99.90
612;DHT22;293;53.888;11.464;2023-11-19T06:49:09;6.80;99.90
612;DHT22;293;53.888;11.464;2023-11-19T06:51:36;6.80;99.90
612;DHT22;293;53.888;11.464;2023-11-19T06:54:07;6.80;99.90
612;DHT22;293;53.888;11.464;2023-11-19T06:56:34;6.80;99.90
612;DHT22;293;53.888;11.464;2023-11-19T06:59:00;6.90;99.90
612;DHT22;293;53.888;11.464;2023-11-19T07:01:27;7.00;99.90
612;DHT22;293;53.888;11.464;2023-11-19T07:03:55;7.00;99.90
612;DHT22;293;53.888;11.464;2023-11-19T07:06:23;7.00;99.90
612;DHT22;293;53.888;11.464;2023-11-19T07:08:50;7.00;99.90
612;DHT22;293;53.888;11.464;2023-11-19T07:11:17;7.10;99.90
612;DHT22;293;53.888;11.464;2023-11-19T07:13:44;7.10;99.90
612;DHT22;293;53.888;11.464;2023-11-19T07:16:14;7.10;99.90
612;DHT22;293;53.888;11.464;2023-11-19T07:18:41;7.10;99.90
612;DHT22;293;53.888;11.464;2023-11-19T07:21:10;7.20;99.90
612;DHT22;293;53.888;11.464;2023-11-19T07:23:37;7.20;99.90
612;DHT22;293;53.888;11.464;2023-11-19T07:26:05;7.30;99.90
612;DHT22;293;53.888;11.464;2023-11-19T07:28:34;7.30;99.90
612;DHT22;293;53.888;11.464;2023-11-19T07:31:01;7.40;99.90
612;DHT22;293;53.888;11.464;2023-11-19T07:33:28;7.40;99.90
612;DHT22;293;53.888;11.464;2023-11-19T07:35:55;7.40;99.90
612;DHT22;293;53.888;11.464;2023-11-19T07:38:24;7.40;99.90
612;DHT22;293;53.888;11.464;2023-11-19T07:40:51;7.50;99.90
612;DHT22;293;53.888;11.464;2023-11-19T07:43:17;7.50;99.90
612;DHT22;293;53.888;11.464;2023-11-19T07:45:44;7.50;99.90
612;DHT22;293;53.888;11.464;2023-11-19T07:48:12;7.60;99.90
612;DHT22;293;53.888;11.464;2023-11-19T07:50:39;7.60;99.90
612;DHT22;293;53.888;11.464;2023-11-19T07:53:06;7.60;99.90
612;DHT22;293;53.888;11.464;2023-11-19T07:55:35;7.70;99.90
612;DHT22;293;53.888;11.464;2023-11-19T07:58:02;7.70;99.90
612;DHT22;293;53.888;11.464;2023-11-19T08:00:29;7.70;99.90
612;DHT22;293;53.888;11.464;2023-11-19T08:02:56;7.80;99.90
612;DHT22;293;53.888;11.464;2023-11-19T08:05:23;7.80;99.90
612;DHT22;293;53.888;11.464;2023-11-19T08:07:50;7.90;99.90
612;DHT22;293;53.888;11.464;2023-11-19T08:10:18;7.90;99.90
612;DHT22;293;53.888;11.464;2023-11-19T08:12:46;7.90;99.90
612;DHT22;293;53.888;11.464;2023-11-19T08:15:14;8.00;99.90
612;DHT22;293;53.888;11.464;2023-11-19T08:17:41;8.00;99.90
612;DHT22;293;53.888;11.464;2023-11-19T08:20:09;8.00;99.90
612;DHT22;293;53.888;11.464;2023-11-19T08:22:36;8.00;99.90
612;DHT22;293;53.888;11.464;2023-11-19T08:25:03;8.10;99.90
612;DHT22;293;53.888;11.464;2023-11-19T08:27:31;8.10;99.90
612;DHT22;293;53.888;11.464;2023-11-19T08:29:59;8.20;99.90
612;DHT22;293;53.888;11.464;2023-11-19T08:32:26;8.20;99.90
612;DHT22;293;53.888;11.464;2023-11-19T08:34:54;8.20;99.90
612;DHT22;293;53.888;11.464;2023-11-19T08:37:21;8.20;99.90
612;DHT22;293;53.888;11.464;2023-11-19T08:39:48;8.20;99.90
612;DHT22;293;53.888;11.464;2023-11-19T08:42:17;8.30;99.90
612;DHT22;293;53.888;11.464;2023-11-19T08:44:49;8.30;99.90
612;DHT22;293;53.888;11.464;2023-11-19T08:47:21;8.40;99.90
612;DHT22;293;53.888;11.464;2023-11-19T08:49:50;8.40;99.90
612;DHT22;293;53.888;11.464;2023-11-19T08:52:17;8.40;99.90
612;DHT22;293;53.888;11.464;2023-11-19T08:54:44;8.50;99.90
612;DHT22;293;53.888;11.464;2023-11-19T08:57:11;8.50;99.90
612;DHT22;293;53.888;11.464;2023-11-19T08:59:37;8.50;99.90
612;DHT22;293;53.888;11.464;2023-11-19T09:02:04;8.60;99.90
612;DHT22;293;53.888;11.464;2023-11-19T09:04:33;8.60;99.90
612;DHT22;293;53.888;11.464;2023-11-19T09:07:01;8.70;99.90
612;DHT22;293;53.888;11.464;2023-11-19T09:09:28;8.70;99.90
612;DHT22;293;53.888;11.464;2023-11-19T09:11:56;8.80;99.90
612;DHT22;293;53.888;11.464;2023-11-19T09:14:23;8.90;99.90
612;DHT22;293;53.888;11.464;2023-11-19T09:16:51;9.00;99.90
612;DHT22;293;53.888;11.464;2023-11-19T09:19:18;9.10;99.90
612;DHT22;293;53.888;11.464;2023-11-19T09:21:46;9.10;99.90
612;DHT22;293;53.888;11.464;2023-11-19T09:24:14;9.20;99.90
612;DHT22;293;53.888;11.464;2023-11-19T09:26:41;9.30;99.90
612;DHT22;293;53.888;11.464;2023-11-19T09:29:08;9.40;99.90
612;DHT22;293;53.888;11.464;2023-11-19T09:31:35;9.50;99.90
612;DHT22;293;53.888;11.464;2023-11-19T09:34:04;9.50;99.90
612;DHT22;293;53.888;11.464;2023-11-19T09:36:31;9.60;99.90
612;DHT22;293;53.888;11.464;2023-11-19T09:38:59;9.60;99.90
612;DHT22;293;53.888;11.464;2023-11-19T09:41:27;9.70;99.90
612;DHT22;293;53.888;11.464;2023-11-19T09:43:55;9.80;99.90
612;DHT22;293;53.888;11.464;2023-11-19T09:46:23;9.90;99.90
612;DHT22;293;53.888;11.464;2023-11-19T09:48:52;9.90;99.90
612;DHT22;293;53.888;11.464;2023-11-19T09:51:20;9.90;99.90
612;DHT22;293;53.888;11.464;2023-11-19T09:53:48;10.00;99.90
612;DHT22;293;53.888;11.464;2023-11-19T09:56:16;10.00;99.90
612;DHT22;293;53.888;11.464;2023-11-19T09:58:43;10.10;99.90
612;DHT22;293;53.888;11.464;2023-11-19T10:01:10;10.20;99.90
612;DHT22;293;53.888;11.464;2023-11-19T10:03:38;10.20;99.90
612;DHT22;293;53.888;11.464;2023-11-19T10:06:07;10.30;99.90
612;DHT22;293;53.888;11.464;2023-11-19T10:08:34;10.30;99.90
612;DHT22;293;53.888;11.464;2023-11-19T10:11:01;10.40;99.90
612;DHT22;293;53.888;11.464;2023-11-19T10:13:29;10.50;99.90
612;DHT22;293;53.888;11.464;2023-11-19T10:15:56;10.60;99.90
612;DHT22;293;53.888;11.464;2023-11-19T10:18:25;10.70;99.90
612;DHT22;293;53.888;11.464;2023-11-19T10:20:52;10.80;99.90
612;DHT22;293;53.888;11.464;2023-11-19T10:23:20;10.90;99.90
612;DHT22;293;53.888;11.464;2023-11-19T10:25:47;11.00;99.90
612;DHT22;293;53.888;11.464;2023-11-19T10:28:15;11.20;99.90
612;DHT22;293;53.888;11.464;2023-11-19T10:30:44;11.30;99.90
612;DHT22;293;53.888;11.464;2023-11-19T10:33:12;11.40;99.90
612;DHT22;293;53.888;11.464;2023-11-19T10:35:51;11.50;99.90
612;DHT22;293;53.888;11.464;2023-11-19T10:38:18;11.60;99.90
612;DHT22;293;53.888;11.464;2023-11-19T10:40:45;11.60;99.90
612;DHT22;293;53.888;11.464;2023-11-19T10:43:12;11.60;99.90
612;DHT22;293;53.888;11.464;2023-11-19T10:45:40;11.70;99.90
612;DHT22;293;53.888;11.464;2023-11-19T10:48:08;11.60;99.90
612;DHT22;293;53.888;11.464;2023-11-19T10:50:36;11.60;99.90
612;DHT22;293;53.888;11.464;2023-11-19T10:53:05;11.60;99.90
612;DHT22;293;53.888;11.464;2023-11-19T10:55:33;11.50;99.90
612;DHT22;293;53.888;11.464;2023-11-19T10:58:02;11.40;99.90
612;DHT22;293;53.888;11.464;2023-11-19T11:00:29;11.40;99.90
612;DHT22;293;53.888;11.464;2023-11-19T11:03:00;11.40;99.90
612;DHT22;293;53.888;11.464;2023-11-19T11:05:29;11.30;99.90
612;DHT22;293;53.888;11.464;2023-11-19T11:08:00;11.30;99.90
612;DHT22;293;53.888;11.464;2023-11-19T11:10:28;11.40;99.90
612;DHT22;293;53.888;11.464;2023-11-19T11:12:59;11.30;99.90
612;DHT22;293;53.888;11.464;2023-11-19T11:15:30;11.30;99.90
612;DHT22;293;53.888;11.464;2023-11-19T11:17:59;11.40;99.90
612;DHT22;293;53.888;11.464;2023-11-19T11:20:29;11.40;99.90
612;DHT22;293;53.888;11.464;2023-11-19T11:23:14;11.40;99.90
612;DHT22;293;53.888;11.464;2023-11-19T11:25:52;11.40;99.90
612;DHT22;293;53.888;11.464;2023-11-19T11:28:31;11.40;99.90
612;DHT22;293;53.888;11.464;2023-11-19T11:31:11;11.40;99.90
612;DHT22;293;53.888;11.464;2023-11-19T11:34:00;11.40;99.90
612;DHT22;293;53.888;11.464;2023-11-19T11:36:40;11.40;99.90
612;DHT22;293;53.888;11.464;2023-11-19T11:39:11;11.40;99.90
612;DHT22;293;53.888;11.464;2023-11-19T11:41:39;11.50;99.90
612;DHT22;293;53.888;11.464;2023-11-19T11:44:05;11.50;99.90
612;DHT22;293;53.888;11.464;2023-11-19T11:46:54;11.60;99.90
612;DHT22;293;53.888;11.464;2023-11-19T11:49:28;11.70;99.90
612;DHT22;293;53.888;11.464;2023-11-19T11:52:04;11.80;99.90
612;DHT22;293;53.888;11.464;2023-11-19T11:54:31;11.90;99.90
612;DHT22;293;53.888;11.464;2023-11-19T11:57:11;11.90;99.90
612;DHT22;293;53.888;11.464;2023-11-19T11:59:48;12.00;99.90
612;DHT22;293;53.888;11.464;2023-11-19T12:02:16;12.10;99.90
612;DHT22;293;53.888;11.464;2023-11-19T12:04:47;12.00;99.90
612;DHT22;293;53.888;11.464;2023-11-19T12:07:18;12.00;99.90
612;DHT22;293;53.888;11.464;2023-11-19T12:09:51;12.00;99.90
612;DHT22;293;53.888;11.464;2023-11-19T12:12:21;12.00;99.90
612;DHT22;293;53.888;11.464;2023-11-19T12:15:05;11.90;99.90
612;DHT22;293;53.888;11.464;2023-11-19T12:17:41;11.90;99.90
612;DHT22;293;53.888;11.464;2023-11-19T12:20:10;11.90;99.90
612;DHT22;293;53.888;11.464;2023-11-19T12:22:39;12.00;99.90
612;DHT22;293;53.888;11.464;2023-11-19T12:25:06;12.10;99.90
612;DHT22;293;53.888;11.464;2023-11-19T12:27:34;12.00;99.90
612;DHT22;293;53.888;11.464;2023-11-19T12:30:01;12.00;99.90
612;DHT22;293;53.888;11.464;2023-11-19T12:32:38;12.00;99.90
612;DHT22;293;53.888;11.464;2023-11-19T12:35:05;11.90;99.90
612;DHT22;293;53.888;11.464;2023-11-19T12:37:33;11.90;99.90
612;DHT22;293;53.888;11.464;2023-11-19T12:40:02;11.80;99.90
612;DHT22;293;53.888;11.464;2023-11-19T12:42:37;11.80;99.90
612;DHT22;293;53.888;11.464;2023-11-19T12:45:05;11.80;99.90
612;DHT22;293;53.888;11.464;2023-11-19T12:47:32;11.80;99.90
612;DHT22;293;53.888;11.464;2023-11-19T12:49:58;11.70;99.90
612;DHT22;293;53.888;11.464;2023-11-19T12:52:25;11.70;99.90
612;DHT22;293;53.888;11.464;2023-11-19T12:54:52;11.70;99.90
612;DHT22;293;53.888;11.464;2023-11-19T12:57:36;11.60;99.90
612;DHT22;293;53.888;11.464;2023-11-19T13:00:04;11.60;99.90
612;DHT22;293;53.888;11.464;2023-11-19T13:02:45;11.50;99.90
612;DHT22;293;53.888;11.464;2023-11-19T13:05:28;11.60;99.90
612;DHT22;293;53.888;11.464;2023-11-19T13:08:03;11.60;99.90
612;DHT22;293;53.888;11.464;2023-11-19T13:10:31;11.60;99.90
612;DHT22;293;53.888;11.464;2023-11-19T13:13:07;11.50;99.90
612;DHT22;293;53.888;11.464;2023-11-19T13:15:35;11.50;99.90
612;DHT22;293;53.888;11.464;2023-11-19T13:18:02;11.50;99.90
612;DHT22;293;53.888;11.464;2023-11-19T13:20:29;11.60;99.90
612;DHT22;293;53.888;11.464;2023-11-19T13:22:58;11.60;99.90
612;DHT22;293;53.888;11.464;2023-11-19T13:25:25;11.50;99.90
612;DHT22;293;53.888;11.464;2023-11-19T13:27:52;11.50;99.90
612;DHT22;293;53.888;11.464;2023-11-19T13:30:21;11.50;99.90
612;DHT22;293;53.888;11.464;2023-11-19T13:32:48;11.50;99.90
612;DHT22;293;53.888;11.464;2023-11-19T13:35:15;11.50;99.90
612;DHT22;293;53.888;11.464;2023-11-19T13:37:43;11.50;99.90
612;DHT22;293;53.888;11.464;2023-11-19T13:40:11;11.50;99.90
612;DHT22;293;53.888;11.464;2023-11-19T13:42:39;11.50;99.90
612;DHT22;293;53.888;11.464;2023-11-19T13:45:08;11.50;99.90
612;DHT22;293;53.888;11.464;2023-11-19T13:47:39;11.50;99.90
612;DHT22;293;53.888;11.464;2023-11-19T13:50:08;11.50;99.90
612;DHT22;293;53.888;11.464;2023-11-19T13:52:36;11.50;99.90
612;DHT22;293;53.888;11.464;2023-11-19T13:55:06;11.50;99.90
612;DHT22;293;53.888;11.464;2023-11-19T13:57:33;11.50;99.90
612;DHT22;293;53.888;11.464;2023-11-19T14:00:00;11.40;99.90
612;DHT22;293;53.888;11.464;2023-11-19T14:02:28;11.40;99.90
612;DHT22;293;53.888;11.464;2023-11-19T14:04:57;11.40;99.90
612;DHT22;293;53.888;11.464;2023-11-19T14:07:23;11.40;99.90
612;DHT22;293;53.888;11.464;2023-11-19T14:09:50;11.30;99.90
612;DHT22;293;53.888;11.464;2023-11-19T14:12:17;11.30;99.90
612;DHT22;293;53.888;11.464;2023-11-19T14:14:44;11.40;99.90
612;DHT22;293;53.888;11.464;2023-11-19T14:17:11;11.40;99.90
612;DHT22;293;53.888;11.464;2023-11-19T14:19:38;11.40;99.90
612;DHT22;293;53.888;11.464;2023-11-19T14:22:06;11.30;99.90
612;DHT22;293;53.888;11.464;2023-11-19T14:24:34;11.30;99.90
612;DHT22;293;53.888;11.464;2023-11-19T14:27:01;11.30;99.90
612;DHT22;293;53.888;11.464;2023-11-19T14:29:27;11.30;99.90
612;DHT22;293;53.888;11.464;2023-11-19T14:31:55;11.30;99.90
612;DHT22;293;53.888;11.464;2023-11-19T14:34:22;11.30;99.90
612;DHT22;293;53.888;11.464;2023-11-19T14:36:50;11.30;99.90
612;DHT22;293;53.888;11.464;2023-11-19T14:39:18;11.30;99.90
612;DHT22;293;53.888;11.464;2023-11-19T14:41:45;11.30;99.90
612;DHT22;293;53.888;11.464;2023-11-19T14:44:12;11.30;99.90
612;DHT22;293;53.888;11.464;2023-11-19T14:46:39;11.30;99.90
612;DHT22;293;53.888;11.464;2023-11-19T14:49:05;11.30;99.90
612;DHT22;293;53.888;11.464;2023-11-19T14:51:35;11.30;99.90
612;DHT22;293;53.888;11.464;2023-11-19T14:54:02;11.30;99.90
612;DHT22;293;53.888;11.464;2023-11-19T14:56:31;11.40;99.90
612;DHT22;293;53.888;11.464;2023-11-19T14:58:57;11.40;99.90
612;DHT22;293;53.888;11.464;2023-11-19T15:01:25;11.40;99.90
612;DHT22;293;53.888;11.464;2023-11-19T15:03:54;11.40;99.90
612;DHT22;293;53.888;11.464;2023-11-19T15:06:23;11.40;99.90
612;DHT22;293;53.888;11.464;2023-11-19T15:08:51;11.50;99.90
612;DHT22;293;53.888;11.464;2023-11-19T15:11:18;11.40;99.90
612;DHT22;293;53.888;11.464;2023-11-19T15:13:46;11.40;99.90
612;DHT22;293;53.888;11.464;2023-11-19T15:16:13;11.40;99.90
612;DHT22;293;53.888;11.464;2023-11-19T15:18:40;11.40;99.90
612;DHT22;293;53.888;11.464;2023-11-19T15:21:07;11.30;99.90
612;DHT22;293;53.888;11.464;2023-11-19T15:23:34;11.30;99.90
612;DHT22;293;53.888;11.464;2023-11-19T15:26:02;11.20;99.90
612;DHT22;293;53.888;11.464;2023-11-19T15:28:29;11.20;99.90
612;DHT22;293;53.888;11.464;2023-11-19T15:30:57;11.10;99.90
612;DHT22;293;53.888;11.464;2023-11-19T15:33:25;11.10;99.90
612;DHT22;293;53.888;11.464;2023-11-19T15:35:51;11.00;99.90
612;DHT22;293;53.888;11.464;2023-11-19T15:38:18;11.00;99.90
612;DHT22;293;53.888;11.464;2023-11-19T15:40:45;11.00;99.90
612;DHT22;293;53.888;11.464;2023-11-19T15:43:12;11.00;99.90
612;DHT22;293;53.888;11.464;2023-11-19T15:45:39;11.00;99.90
612;DHT22;293;53.888;11.464;2023-11-19T15:48:07;11.00;99.90
612;DHT22;293;53.888;11.464;2023-11-19T15:50:34;11.00;99.90
612;DHT22;293;53.888;11.464;2023-11-19T15:53:01;11.00;99.90
612;DHT22;293;53.888;11.464;2023-11-19T15:55:27;11.00;99.90
612;DHT22;293;53.888;11.464;2023-11-19T15:57:54;10.90;99.90
612;DHT22;293;53.888;11.464;2023-11-19T16:00:21;10.90;99.90
612;DHT22;293;53.888;11.464;2023-11-19T16:02:48;10.90;99.90
612;DHT22;293;53.888;11.464;2023-11-19T16:05:17;10.90;99.90
612;DHT22;293;53.888;11.464;2023-11-19T16:07:44;10.90;99.90
612;DHT22;293;53.888;11.464;2023-11-19T16:10:12;10.90;99.90
612;DHT22;293;53.888;11.464;2023-11-19T16:12:39;10.90;99.90
612;DHT22;293;53.888;11.464;2023-11-19T16:15:07;10.90;99.90
612;DHT22;293;53.888;11.464;2023-11-19T16:17:34;10.90;99.90
612;DHT22;293;53.888;11.464;2023-11-19T16:20:02;10.90;99.90
612;DHT22;293;53.888;11.464;2023-11-19T16:22:33;10.90;99.90
612;DHT22;293;53.888;11.464;2023-11-19T16:25:00;10.90;99.90
612;DHT22;293;53.888;11.464;2023-11-19T16:27:28;10.90;99.90
612;DHT22;293;53.888;11.464;2023-11-19T16:29:54;10.90;99.90
612;DHT22;293;53.888;11.464;2023-11-19T16:32:21;10.80;99.90